Time;durP1;ratioP1;P1;durP2;ratioP2;P2;SDS_P1;SDS_P2;PMS_P1;PMS_P2;Temp;Humidity;BMP_temperature;BMP_pressure;BME280_temperature;BME280_humidity;BME280_pressure;Samples;Min_cycle;Max_cycle;Signal;HPM_P1;HPM_P2
2022/05/17 00:02:05;;;;;;;20.55;9.10;;;;;;;8.94;48.95;144455.06;1610897;88;21070;-55
2022/05/17 00:04:33;;;;;;;19.90;8.88;;;;;;;8.91;48.95;144448.80;1614341;85;21042;-59
2022/05/17 00:07:04;;;;;;;16.00;8.33;;;;;;;8.89;49.03;144443.78;1634415;85;21061;-59
2022/05/17 00:09:33;;;;;;;19.17;9.40;;;;;;;8.86;49.15;144436.28;1597027;89;21053;-60
2022/05/17 00:12:00;;;;;;;17.87;7.97;;;;;;;8.85;48.86;144433.78;1606439;88;21109;-59
2022/05/17 00:14:28;;;;;;;16.57;7.60;;;;;;;8.86;49.22;144436.28;1678297;85;21088;-59
2022/05/17 00:16:56;;;;;;;13.68;6.92;;;;;;;8.86;49.49;144436.28;1678333;85;21017;-60
2022/05/17 00:19:24;;;;;;;14.85;6.75;;;;;;;8.85;49.62;144433.78;1611153;88;21166;-61
2022/05/17 00:21:53;;;;;;;13.80;7.03;;;;;;;8.85;49.52;144433.78;1626438;87;21615;-60
2022/05/17 00:24:21;;;;;;;19.57;6.47;;;;;;;8.86;49.73;144436.28;1635754;87;21103;-60
2022/05/17 00:26:49;;;;;;;13.20;6.95;;;;;;;8.87;49.81;144438.75;1635546;87;21092;-60
2022/05/17 00:29:16;;;;;;;14.33;6.90;;;;;;;8.88;49.85;144441.28;1635331;87;21029;-60
2022/05/17 00:31:43;;;;;;;16.12;6.47;;;;;;;8.92;49.84;144450.03;1633269;85;21111;-59
2022/05/17 00:34:10;;;;;;;15.32;6.55;;;;;;;8.95;49.76;144456.30;1655738;85;21076;-60
2022/05/17 00:36:37;;;;;;;15.35;5.97;;;;;;;8.99;49.68;144466.34;1635520;87;21067;-60
2022/05/17 00:39:05;;;;;;;13.35;5.92;;;;;;;9.02;49.65;144473.84;1635320;87;21081;-61
2022/05/17 00:41:32;;;;;;;11.88;6.20;;;;;;;9.05;49.65;144482.59;1632822;87;21542;-59
2022/05/17 00:46:57;;;;;;;15.28;6.33;;;;;;;9.12;49.92;144498.91;1611116;88;21119;-60
2022/05/17 00:49:44;;;;;;;14.18;6.47;;;;;;;9.13;49.89;144502.67;1611391;88;21076;-58
2022/05/17 00:52:25;;;;;;;11.35;6.20;;;;;;;9.13;50.04;144502.67;1617980;85;21068;-59
2022/05/17 00:54:56;;;;;;;14.90;6.33;;;;;;;9.11;50.42;144496.41;1636245;88;21040;-60
2022/05/17 00:57:49;;;;;;;11.93;5.53;;;;;;;9.09;50.44;144491.39;1635986;88;21056;-61
2022/05/17 01:00:19;;;;;;;13.75;5.28;;;;;;;9.08;50.60;144488.86;1639776;85;21068;-56
2022/05/17 01:02:52;;;;;;;13.65;5.92;;;;;;;9.07;50.85;144486.38;1619249;89;21088;-61
2022/05/17 01:05:23;;;;;;;12.73;6.33;;;;;;;9.03;50.82;144477.63;1623079;88;21131;-60
2022/05/17 01:07:55;;;;;;;10.10;5.42;;;;;;;9.02;51.07;144475.09;1678635;85;21072;-59
2022/05/17 01:10:27;;;;;;;10.35;4.92;;;;;;;9.00;51.17;144468.83;1617783;89;21531;-59
2022/05/17 01:15:41;;;;;;;12.07;5.33;;;;;;;8.89;51.29;144442.53;1582917;89;21101;-62
2022/05/17 01:18:08;;;;;;;11.70;5.62;;;;;;;8.86;51.51;144436.28;1582816;89;21420;-59
2022/05/17 01:20:35;;;;;;;12.78;4.92;;;;;;;8.85;51.73;144433.78;1668886;85;21049;-60
2022/05/17 01:23:02;;;;;;;13.15;4.62;;;;;;;8.85;51.73;144432.50;1678376;85;21555;-59
2022/05/17 01:25:30;;;;;;;11.20;4.37;;;;;;;8.83;51.88;144428.77;1678458;85;21056;-62
2022/05/17 01:28:13;;;;;;;9.93;4.60;;;;;;;8.80;52.04;144421.25;1678351;85;21057;-59
2022/05/17 01:30:40;;;;;;;8.83;4.67;;;;;;;8.78;52.15;144416.25;1593909;88;21114;-59
2022/05/17 01:33:14;;;;;;;10.58;4.58;;;;;;;8.78;52.21;144415.00;1583106;89;21065;-61
2022/05/17 01:35:41;;;;;;;9.68;3.72;;;;;;;8.76;52.06;144409.98;1637404;86;21054;-57
2022/05/17 01:38:08;;;;;;;8.10;3.87;;;;;;;8.74;52.12;144406.20;1637066;86;21063;-59
2022/05/17 01:40:36;;;;;;;9.58;4.78;;;;;;;8.73;52.21;144403.72;1644708;85;21111;-59
2022/05/17 01:43:04;;;;;;;8.43;4.42;;;;;;;8.68;52.60;144392.44;1640731;87;21095;-60
2022/05/17 01:45:31;;;;;;;10.03;4.10;;;;;;;8.61;52.69;144373.66;1642572;87;21084;-59
2022/05/17 01:47:58;;;;;;;10.18;3.60;;;;;;;8.51;52.88;144348.61;1633500;88;21506;-58
2022/05/17 01:50:25;;;;;;;9.03;3.90;;;;;;;8.41;53.12;144326.06;1633146;87;21079;-61
2022/05/17 01:52:52;;;;;;;9.83;3.70;;;;;;;8.32;53.30;144303.50;1633256;87;21088;-64
2022/05/17 01:55:19;;;;;;;9.90;3.98;;;;;;;8.22;53.47;144278.47;1633349;87;21045;-68
2022/05/17 01:57:46;;;;;;;7.62;3.72;;;;;;;8.13;53.84;144255.92;1647142;87;21049;-63
2022/05/17 02:00:16;;;;;;;9.35;3.90;;;;;;;8.05;54.04;144237.14;1611465;88;21126;-62
2022/05/17 02:02:43;;;;;;;9.65;3.70;;;;;;;7.95;54.27;144213.34;1611724;88;21022;-62
2022/05/17 02:05:11;;;;;;;8.08;3.37;;;;;;;7.88;54.53;144195.83;1611602;88;21050;-62
2022/05/17 02:07:39;;;;;;;7.95;3.22;;;;;;;7.83;54.66;144184.55;1611560;88;21636;-65
2022/05/17 02:10:08;;;;;;;7.80;3.67;;;;;;;7.78;54.65;144170.80;1611682;88;21046;-63
2022/05/17 02:12:35;;;;;;;7.47;2.90;;;;;;;7.72;54.84;144157.05;1611824;88;21038;-60
2022/05/17 02:15:06;;;;;;;11.25;2.75;;;;;;;7.67;54.96;144144.53;1611579;88;21077;-61
2022/05/17 02:17:35;;;;;;;7.55;2.80;;;;;;;7.64;55.03;144135.78;1611719;89;21496;-65
2022/05/17 02:20:05;;;;;;;6.33;3.33;;;;;;;7.64;55.21;144135.78;1611722;88;21105;-63
2022/05/17 02:22:32;;;;;;;6.22;2.75;;;;;;;7.60;55.30;144128.25;1611762;88;21022;-67
2022/05/17 02:24:59;;;;;;;6.03;2.77;;;;;;;7.61;55.31;144129.53;1611852;88;21563;-63
2022/05/17 02:27:26;;;;;;;5.50;2.85;;;;;;;7.60;55.25;144127.00;1611541;88;21070;-62
2022/05/17 02:29:52;;;;;;;5.08;2.80;;;;;;;7.63;55.34;144134.50;1610895;88;21599;-59
2022/05/17 02:32:19;;;;;;;5.55;2.67;;;;;;;7.63;55.23;144134.50;1611716;88;21078;-62
2022/05/17 02:34:45;;;;;;;5.95;2.85;;;;;;;7.64;55.19;144135.78;1611709;88;21600;-66
2022/05/17 02:37:15;;;;;;;5.42;2.45;;;;;;;7.65;55.37;144138.28;1610894;88;21095;-62
2022/05/17 02:39:45;;;;;;;4.17;2.42;;;;;;;7.66;55.30;144142.05;1605564;88;21059;-59
2022/05/17 02:42:12;;;;;;;7.25;2.40;;;;;;;7.69;55.39;144148.30;1586837;89;21466;-59
2022/05/17 02:44:39;;;;;;;9.40;2.45;;;;;;;7.70;55.43;144150.78;1606129;88;21167;-60
2022/05/17 02:47:07;;;;;;;4.00;2.35;;;;;;;7.73;55.36;144159.53;1577307;91;22265;-62
2022/05/17 02:49:33;;;;;;;7.33;2.58;;;;;;;7.79;55.21;144173.33;1605482;89;21143;-67
2022/05/17 02:52:02;;;;;;;6.10;2.55;;;;;;;7.86;55.11;144190.86;1616079;88;21135;-62
2022/05/17 02:54:29;;;;;;;5.33;2.60;;;;;;;7.92;55.21;144205.86;1606479;87;21085;-60
2022/05/17 02:56:57;;;;;;;4.75;2.27;;;;;;;7.97;55.18;144217.13;1575307;90;21245;-66
2022/05/17 02:59:24;;;;;;;7.08;2.72;;;;;;;8.04;55.04;144235.91;1625532;86;21430;-61
2022/05/17 03:01:51;;;;;;;7.85;3.10;;;;;;;8.13;55.08;144255.92;1633496;85;21053;-58
2022/05/17 03:04:18;;;;;;;10.13;2.65;;;;;;;8.21;54.96;144277.17;1628295;86;21604;-61
2022/05/17 03:06:46;;;;;;;7.10;2.50;;;;;;;8.29;54.74;144295.95;1625467;86;21091;-60
2022/05/17 03:09:13;;;;;;;5.25;2.35;;;;;;;8.38;54.37;144318.50;1633679;86;21102;-60
2022/05/17 03:11:43;;;;;;;6.35;2.60;;;;;;;8.51;54.25;144348.61;1631208;85;21625;-61
2022/05/17 03:14:17;;;;;;;5.03;2.23;;;;;;;8.63;54.05;144379.91;1635765;86;21088;-60
2022/05/17 03:16:44;;;;;;;5.47;2.47;;;;;;;8.71;54.20;144398.70;1629385;86;21659;-61
2022/05/17 03:19:11;;;;;;;5.80;2.25;;;;;;;8.81;54.08;144423.75;1632376;87;21111;-67
2022/05/17 03:21:40;;;;;;;7.67;2.75;;;;;;;8.87;53.92;144437.52;1625900;86;21088;-60
2022/05/17 03:24:07;;;;;;;5.37;2.40;;;;;;;8.94;53.63;144455.06;1627888;87;21025;-58
2022/05/17 03:26:34;;;;;;;6.05;2.12;;;;;;;9.03;53.42;144476.33;1624895;86;21095;-57
2022/05/17 03:29:01;;;;;;;5.62;2.37;;;;;;;9.11;53.11;144496.41;1639949;85;22173;-65
2022/05/17 03:31:27;;;;;;;4.50;2.05;;;;;;;9.18;53.03;144512.67;1622777;87;21111;-66
2022/05/17 03:33:54;;;;;;;6.47;3.00;;;;;;;9.20;52.71;144518.94;1636739;85;21574;-60
2022/05/17 03:36:21;;;;;;;7.95;2.30;;;;;;;9.24;52.69;144527.73;1633604;85;21038;-66
2022/05/17 03:38:49;;;;;;;5.47;1.98;;;;;;;9.27;52.70;144536.48;1643504;85;21120;-59
2022/05/17 03:41:16;;;;;;;7.87;2.65;;;;;;;9.34;52.67;144554.03;1633304;86;21068;-61
2022/05/17 03:43:43;;;;;;;7.72;2.10;;;;;;;9.43;52.62;144574.06;1625242;86;21187;-58
2022/05/17 03:46:12;;;;;;;14.70;2.35;;;;;;;9.47;52.56;144585.36;1627812;87;21087;-58
2022/05/17 03:48:38;;;;;;;8.18;2.08;;;;;;;9.52;52.62;144596.64;1631140;86;21139;-58
2022/05/17 03:51:17;;;;;;;5.12;2.20;;;;;;;9.55;52.55;144604.16;1622575;86;21055;-58
2022/05/17 03:53:45;;;;;;;6.00;2.12;;;;;;;9.60;52.52;144616.69;1633723;86;21138;-57
2022/05/17 03:56:12;;;;;;;6.55;1.90;;;;;;;9.64;52.28;144626.73;1632553;87;21032;-58
2022/05/17 03:58:40;;;;;;;4.03;2.08;;;;;;;9.70;52.25;144640.50;1632857;86;21095;-58
2022/05/17 04:01:07;;;;;;;6.08;2.05;;;;;;;9.74;52.17;144650.50;1633362;87;21079;-62
2022/05/17 04:03:34;;;;;;;9.13;2.40;;;;;;;9.78;52.13;144661.80;1631583;86;21115;-58
2022/05/17 04:06:02;;;;;;;5.67;2.22;;;;;;;9.83;52.26;144671.84;1630237;86;21063;-65
2022/05/17 04:08:28;;;;;;;7.78;3.08;;;;;;;9.88;52.29;144684.38;1583055;89;21609;-58
2022/05/17 04:10:58;;;;;;;8.90;3.27;;;;;;;9.92;52.21;144694.38;1584111;90;21135;-59
2022/05/17 04:13:29;;;;;;;10.40;3.80;;;;;;;9.97;52.21;144706.91;1604723;89;21040;-59
2022/05/17 04:15:53;;;;;;;9.25;2.60;;;;;;;10.05;51.98;144727.00;1578530;90;21073;-60
2022/05/17 04:18:20;;;;;;;5.83;3.00;;;;;;;10.11;51.65;144740.78;1589293;89;21068;-56
2022/05/17 04:20:46;;;;;;;6.25;2.58;;;;;;;10.17;51.68;144757.06;1605371;87;21080;-57
2022/05/17 04:23:13;;;;;;;11.00;3.15;;;;;;;10.22;51.86;144768.34;1637528;86;21094;-57
2022/05/17 04:25:40;;;;;;;5.67;2.35;;;;;;;10.27;51.77;144779.64;1637884;86;21069;-64
2022/05/17 04:28:08;;;;;;;6.05;2.58;;;;;;;10.33;51.79;144794.72;1635453;85;21469;-61
2022/05/17 04:30:35;;;;;;;6.45;2.87;;;;;;;10.44;52.00;144822.34;1630650;86;21036;-59
2022/05/17 04:33:03;;;;;;;4.97;1.85;;;;;;;10.57;51.96;144854.94;1637572;85;21609;-58
2022/05/17 04:35:29;;;;;;;5.28;2.10;;;;;;;10.73;51.65;144893.81;1624491;86;21041;-58
2022/05/17 04:37:57;;;;;;;5.45;2.25;;;;;;;10.90;51.31;144935.22;1634150;85;21598;-59
2022/05/17 04:40:24;;;;;;;6.37;1.95;;;;;;;11.07;50.94;144977.89;1586678;90;21072;-60
2022/05/17 04:42:53;;;;;;;10.30;2.08;;;;;;;11.25;50.87;145020.56;1633005;86;21092;-59
2022/05/17 04:45:19;;;;;;;4.60;1.92;;;;;;;11.50;50.50;145082.06;1629353;85;21035;-60
2022/05/17 04:47:46;;;;;;;5.22;2.05;;;;;;;11.79;50.09;145153.59;1634404;85;21688;-62
2022/05/17 04:50:16;;;;;;;5.50;1.95;;;;;;;12.06;50.05;145218.91;1635852;86;21036;-60
2022/05/17 04:52:47;;;;;;;5.92;1.85;;;;;;;12.32;48.85;145284.25;1633018;87;21308;-61
2022/05/17 04:55:17;;;;;;;5.47;1.90;;;;;;;12.57;48.14;145344.56;1628029;86;21107;-60
2022/05/17 04:57:44;;;;;;;7.75;2.05;;;;;;;12.80;47.62;145402.33;1644013;85;21618;-60
2022/05/17 05:00:18;;;;;;;4.15;1.70;;;;;;;12.94;47.11;145434.98;1636662;85;21123;-60
2022/05/17 05:02:44;;;;;;;4.50;2.47;;;;;;;13.04;46.79;145460.13;1634173;87;21103;-60
2022/05/17 05:05:12;;;;;;;5.42;2.00;;;;;;;13.18;46.96;145494.08;1639093;87;21026;-60
2022/05/17 05:07:39;;;;;;;8.70;1.72;;;;;;;13.43;46.41;145555.69;1609590;88;21107;-60
2022/05/17 05:10:08;;;;;;;5.35;2.02;;;;;;;13.61;46.09;145600.97;1638229;87;21545;-59
2022/05/17 05:12:35;;;;;;;3.60;1.50;;;;;;;13.74;45.41;145632.41;1637052;87;21056;-61
2022/05/17 05:15:04;;;;;;;6.92;2.85;;;;;;;13.81;45.19;145648.72;1603491;88;21093;-60
2022/05/17 05:17:33;;;;;;;4.65;1.92;;;;;;;13.88;45.29;145666.34;1590843;89;21115;-58
2022/05/17 05:20:01;;;;;;;4.97;1.80;;;;;;;13.89;44.54;145668.83;1607443;88;21074;-60
2022/05/17 05:22:30;;;;;;;4.12;1.70;;;;;;;13.90;44.60;145671.37;1615429;88;21072;-60
2022/05/17 05:24:57;;;;;;;6.72;2.02;;;;;;;14.02;44.34;145701.56;1586375;89;21068;-60
2022/05/17 05:27:23;;;;;;;6.15;2.08;;;;;;;14.14;44.47;145729.22;1610944;88;21125;-63
2022/05/17 05:29:50;;;;;;;5.05;2.10;;;;;;;14.26;45.25;145759.41;1604714;88;21532;-60
2022/05/17 05:32:17;;;;;;;7.60;1.80;;;;;;;14.41;44.11;145797.14;1606253;89;21108;-61
2022/05/17 05:34:43;;;;;;;6.90;1.50;;;;;;;15.50;42.30;146064.03;1613311;89;21635;-61
2022/05/17 05:37:10;;;;;;;6.25;1.82;;;;;;;17.19;39.93;146479.84;1582277;90;21102;-61
2022/05/17 05:39:37;;;;;;;4.17;1.72;;;;;;;18.47;37.73;146795.19;1588798;90;21065;-61
2022/05/17 05:42:05;;;;;;;4.65;1.45;;;;;;;18.21;36.53;146732.11;1583599;90;21304;-62
2022/05/17 05:44:34;;;;;;;5.97;1.50;;;;;;;17.73;37.50;146613.48;1639704;85;21052;-61
2022/05/17 05:47:01;;;;;;;7.80;3.00;;;;;;;18.83;36.12;146884.87;1651339;85;21048;-61
2022/05/17 05:49:28;;;;;;;3.50;1.67;;;;;;;19.54;34.46;147060.38;1639691;87;21080;-62
2022/05/17 05:51:54;;;;;;;5.83;1.40;;;;;;;19.07;35.34;146944.19;1648220;85;21038;-62
2022/05/17 05:54:21;;;;;;;6.03;1.62;;;;;;;18.44;35.69;146790.19;1646506;86;21156;-62
2022/05/17 05:56:48;;;;;;;4.47;1.80;;;;;;;18.43;36.25;146787.63;1629807;87;21099;-61
2022/05/17 05:59:15;;;;;;;5.75;2.15;;;;;;;19.73;34.12;147108.37;1626206;86;21075;-61
2022/05/17 06:01:42;;;;;;;7.35;2.70;;;;;;;20.78;32.47;147366.16;1630811;85;21163;-61
2022/05/17 06:04:09;;;;;;;4.87;1.95;;;;;;;20.30;32.63;147247.33;1628958;87;21115;-61
2022/05/17 06:06:36;;;;;;;5.87;2.42;;;;;;;19.79;31.94;147122.25;1625000;87;21095;-61
2022/05/17 06:09:03;;;;;;;5.28;1.90;;;;;;;20.25;32.22;147236.00;1627353;86;21086;-61
2022/05/17 06:11:30;;;;;;;8.35;2.02;;;;;;;20.20;32.14;147222.06;1631838;87;21081;-60
2022/05/17 06:13:57;;;;;;;5.20;2.62;;;;;;;19.73;31.78;147108.37;1636442;85;21134;-61
2022/05/17 06:16:25;;;;;;;4.67;1.50;;;;;;;19.47;31.91;147042.69;1633695;86;21088;-63
2022/05/17 06:18:51;;;;;;;5.80;2.30;;;;;;;20.70;30.13;147345.95;1628400;86;21136;-61
2022/05/17 06:21:18;;;;;;;4.55;1.90;;;;;;;21.11;29.40;147447.06;1634818;86;21539;-61
2022/05/17 06:23:45;;;;;;;8.18;2.20;;;;;;;21.36;28.83;147509.03;1602567;88;21133;-61
2022/05/17 06:26:12;;;;;;;6.65;1.98;;;;;;;21.78;28.44;147614.06;1627185;86;21089;-62
2022/05/17 06:28:39;;;;;;;6.75;1.90;;;;;;;22.58;28.00;147811.44;1640567;86;21060;-62
2022/05/17 06:31:05;;;;;;;4.42;1.65;;;;;;;23.77;26.77;148105.27;1632663;87;21558;-62
2022/05/17 06:33:32;;;;;;;4.15;1.55;;;;;;;24.23;25.31;148219.27;1634755;86;21099;-62
2022/05/17 06:35:58;;;;;;;3.65;1.57;;;;;;;23.87;24.72;148130.59;1637957;85;21066;-62
2022/05/17 06:38:24;;;;;;;5.03;2.02;;;;;;;24.56;25.09;148301.67;1625932;86;21118;-64
2022/05/17 06:40:51;;;;;;;4.67;1.98;;;;;;;25.69;23.56;148580.58;1634090;86;21542;-63
2022/05/17 06:43:18;;;;;;;4.62;1.80;;;;;;;25.43;23.42;148515.94;1638802;85;21083;-62
2022/05/17 06:45:44;;;;;;;5.20;1.80;;;;;;;25.68;23.52;148578.06;1628820;85;21147;-61
2022/05/17 06:48:11;;;;;;;6.58;1.87;;;;;;;26.13;23.20;148691.00;1629513;85;21092;-63
2022/05/17 06:50:37;;;;;;;3.92;1.70;;;;;;;27.10;22.06;148930.86;1634444;86;21127;-62
2022/05/17 06:53:07;;;;;;;3.67;1.62;;;;;;;26.96;21.84;148896.56;1628882;86;21088;-62
2022/05/17 06:55:33;;;;;;;4.33;1.67;;;;;;;27.09;20.82;148927.03;1631741;86;21138;-62
2022/05/17 06:57:59;;;;;;;4.35;1.52;;;;;;;26.98;21.49;148901.66;1635517;86;21052;-63
2022/05/17 07:00:26;;;;;;;5.50;2.02;;;;;;;27.69;20.67;149078.16;1637264;86;21376;-63
2022/05/17 07:02:53;;;;;;;4.05;1.67;;;;;;;28.09;20.07;149177.27;1639608;87;21092;-63
2022/05/17 07:05:20;;;;;;;4.62;1.80;;;;;;;26.96;20.19;148896.56;1646212;86;21102;-62
2022/05/17 07:07:46;;;;;;;7.35;2.17;;;;;;;26.45;20.27;148769.63;1640015;86;21100;-62
2022/05/17 07:13:08;;;;;;;3.45;1.50;;;;;;;25.52;21.64;148538.78;1577919;91;21597;-62
2022/05/17 07:15:47;;;;;;;4.25;1.77;;;;;;;25.62;21.25;148564.12;1644673;87;21128;-62
2022/05/17 07:18:21;;;;;;;4.08;1.62;;;;;;;25.98;21.35;148652.94;1635254;87;21100;-62
2022/05/17 07:20:48;;;;;;;3.45;1.52;;;;;;;26.60;20.74;148807.73;1639974;86;21024;-63
2022/05/17 07:23:17;;;;;;;4.40;1.72;;;;;;;27.35;19.49;148993.11;1609721;88;21543;-63
2022/05/17 07:25:46;;;;;;;5.70;1.80;;;;;;;26.89;20.14;148877.53;1607072;88;21092;-63
2022/05/17 07:28:17;;;;;;;4.35;1.12;;;;;;;27.50;19.99;149029.89;1599739;88;21060;-63
2022/05/17 07:30:47;;;;;;;3.33;0.82;;;;;;;28.48;18.92;149273.84;1582193;91;21617;-63
2022/05/17 07:33:14;;;;;;;9.05;1.20;;;;;;;28.72;18.46;149332.27;1609691;88;21079;-64
2022/05/17 07:35:42;;;;;;;2.58;1.15;;;;;;;28.86;18.21;149366.59;1644213;87;21123;-64
2022/05/17 07:38:09;;;;;;;1.52;0.75;;;;;;;29.12;18.36;149432.70;1641112;87;21073;-63
2022/05/17 07:40:37;;;;;;;3.37;0.80;;;;;;;29.43;18.27;149510.22;1633787;87;21091;-63
2022/05/17 07:43:04;;;;;;;3.72;0.57;;;;;;;28.54;17.90;149287.80;1633129;85;21092;-63
2022/05/17 07:45:31;;;;;;;4.22;0.53;;;;;;;26.55;19.77;148795.05;1641080;87;21245;-62
2022/05/17 07:47:59;;;;;;;2.92;0.70;;;;;;;25.14;20.30;148444.89;1639755;87;21066;-62
2022/05/17 07:50:26;;;;;;;3.72;0.80;;;;;;;24.47;21.38;148280.16;1632283;87;21017;-64
2022/05/17 07:52:53;;;;;;;4.67;0.50;;;;;;;24.78;21.29;148354.88;1634018;85;21613;-63
2022/05/17 07:55:20;;;;;;;1.55;0.72;;;;;;;25.18;21.04;148455.06;1635373;86;21034;-62
2022/05/17 07:57:46;;;;;;;2.75;0.80;;;;;;;24.93;21.25;148391.64;1643629;86;21142;-63
2022/05/17 08:00:14;;;;;;;3.05;0.70;;;;;;;24.79;21.59;148357.44;1637299;86;21565;-61
2022/05/17 08:02:42;;;;;;;1.30;0.53;;;;;;;24.75;21.78;148348.53;1641837;85;21032;-62
2022/05/17 08:05:10;;;;;;;1.95;0.70;;;;;;;24.69;21.88;148333.34;1640321;86;21060;-61
2022/05/17 08:07:39;;;;;;;2.75;0.50;;;;;;;25.25;21.28;148471.56;1638744;85;21079;-62
2022/05/17 08:10:12;;;;;;;5.40;0.70;;;;;;;24.97;21.57;148403.05;1638006;86;21141;-62
2022/05/17 08:12:36;;;;;;;2.05;0.60;;;;;;;24.83;21.70;148368.84;1639594;86;21109;-62
2022/05/17 08:15:08;;;;;;;3.27;0.60;;;;;;;23.95;22.71;148150.84;1641663;86;21151;-62
2022/05/17 08:17:35;;;;;;;1.57;0.60;;;;;;;23.02;23.06;147920.33;1644440;85;21099;-62
2022/05/17 08:20:10;;;;;;;1.90;0.80;;;;;;;21.98;23.93;147662.09;1637222;86;21083;-62
2022/05/17 08:22:40;;;;;;;1.77;0.70;;;;;;;21.48;24.59;147539.44;1640399;86;21138;-62
2022/05/17 08:27:58;;;;;;;3.12;0.70;;;;;;;22.78;23.79;147860.81;1645177;85;21077;-62
2022/05/17 08:30:26;;;;;;;1.65;0.55;;;;;;;23.21;23.26;147965.94;1641968;85;21078;-65
2022/05/17 08:33:15;;;;;;;2.35;0.80;;;;;;;22.62;24.07;147820.28;1645792;86;21072;-63
2022/05/17 08:35:56;;;;;;;2.20;0.60;;;;;;;22.16;24.43;147706.36;1642063;86;21127;-62
2022/05/17 08:38:28;;;;;;;3.77;0.62;;;;;;;22.32;23.61;147746.92;1634666;85;21073;-63
2022/05/17 08:41:26;;;;;;;1.45;0.60;;;;;;;21.70;24.60;147593.78;1646021;85;21103;-62
2022/05/17 08:43:59;;;;;;;3.45;0.60;;;;;;;21.89;24.41;147641.86;1636925;86;21538;-61
2022/05/17 08:49:27;;;;;;;3.10;0.90;;;;;;;20.74;26.60;147357.34;1718738;82;21529;-62
2022/05/17 08:52:07;;;;;;;2.67;0.85;;;;;;;20.86;26.69;147385.12;1718038;83;21020;-63
2022/05/17 08:57:52;;;;;;;4.58;1.10;;;;;;;21.81;25.02;147621.63;1693074;84;21048;-62
2022/05/17 09:00:23;;;;;;;1.60;0.65;;;;;;;21.61;24.67;147572.30;1675373;84;21568;-61
2022/05/17 09:03:05;;;;;;;5.15;0.80;;;;;;;21.70;24.92;147592.53;1710738;82;21032;-61
2022/05/17 09:05:49;;;;;;;4.50;0.50;;;;;;;22.35;25.21;147753.25;1689704;84;21041;-62
2022/05/17 09:08:58;;;;;;;8.95;0.95;;;;;;;22.74;24.82;147850.66;1719180;82;21125;-61
2022/05/17 09:11:46;;;;;;;4.37;0.80;;;;;;;22.35;24.74;147753.25;1705962;83;21054;-63
2022/05/17 09:14:20;;;;;;;3.20;1.10;;;;;;;21.24;25.76;147479.94;1716885;82;21093;-63
2022/05/17 09:16:57;;;;;;;6.03;0.80;;;;;;;20.32;27.26;147253.64;1694418;84;21063;-62
2022/05/17 09:19:25;;;;;;;3.65;1.00;;;;;;;19.55;28.04;147062.88;1701036;84;21126;-61
2022/05/17 09:21:53;;;;;;;2.65;1.00;;;;;;;18.81;29.19;146879.83;1704000;84;21552;-60
2022/05/17 09:24:21;;;;;;;3.33;1.27;;;;;;;18.62;29.91;146833.06;1700136;84;21576;-61
2022/05/17 09:26:52;;;;;;;5.50;1.12;;;;;;;18.51;30.34;146805.31;1702216;84;21076;-60
2022/05/17 09:29:29;;;;;;;5.25;1.05;;;;;;;18.54;30.46;146812.88;1703161;84;21051;-62
2022/05/17 09:32:06;;;;;;;4.97;1.10;;;;;;;18.43;31.19;146786.39;1700941;83;21068;-60
2022/05/17 09:34:37;;;;;;;4.60;0.98;;;;;;;18.34;31.40;146763.66;1701978;84;21052;-61
2022/05/17 09:37:15;;;;;;;3.37;1.30;;;;;;;18.36;31.37;146769.97;1705888;84;21534;-62
2022/05/17 09:39:52;;;;;;;3.55;1.07;;;;;;;18.30;31.51;146754.84;1701473;84;21695;-61
2022/05/17 09:42:46;;;;;;;3.37;1.17;;;;;;;18.14;31.74;146714.44;1702747;84;21040;-61
2022/05/17 09:45:20;;;;;;;6.90;1.20;;;;;;;18.08;32.04;146700.58;1700312;84;21060;-62
2022/05/17 09:48:01;;;;;;;5.83;1.20;;;;;;;18.15;31.90;146717.00;1695285;84;21115;-62
2022/05/17 09:53:18;;;;;;;10.95;1.40;;;;;;;18.27;30.80;146747.28;1676419;84;21048;-61
2022/05/17 09:55:57;;;;;;;4.35;1.17;;;;;;;18.10;31.76;146704.38;1692799;84;21060;-61
2022/05/17 09:58:33;;;;;;;2.65;0.98;;;;;;;18.00;31.08;146681.66;1688712;85;21041;-62
2022/05/17 10:01:09;;;;;;;5.37;1.42;;;;;;;17.97;30.35;146672.84;1669651;85;21094;-60
2022/05/17 10:03:40;;;;;;;5.12;1.00;;;;;;;18.00;30.24;146680.41;1631804;86;21103;-61
2022/05/17 10:06:31;;;;;;;2.70;0.88;;;;;;;18.10;30.31;146704.38;1645106;86;21151;-61
2022/05/17 10:09:05;;;;;;;4.72;1.72;;;;;;;18.23;30.39;146737.17;1696367;84;21081;-60
2022/05/17 10:11:57;;;;;;;3.50;0.90;;;;;;;18.51;30.96;146805.31;1668180;85;21087;-61
2022/05/17 10:14:34;;;;;;;7.47;1.32;;;;;;;18.74;30.95;146862.09;1699928;84;21557;-61
2022/05/17 10:17:28;;;;;;;3.72;1.00;;;;;;;18.77;30.87;146870.97;1690940;84;21128;-62
2022/05/17 10:20:13;;;;;;;3.45;1.25;;;;;;;18.61;31.08;146830.55;1691150;84;21592;-62
2022/05/17 10:23:00;;;;;;;2.67;1.20;;;;;;;18.47;30.97;146795.19;1693728;84;21009;-61
2022/05/17 10:25:56;;;;;;;3.08;1.15;;;;;;;18.26;31.19;146744.73;1697344;84;21107;-61
2022/05/17 10:28:34;;;;;;;5.97;1.27;;;;;;;18.31;31.37;146757.34;1689697;84;21119;-61
2022/05/17 10:31:24;;;;;;;7.55;1.07;;;;;;;18.42;31.70;146785.12;1672540;85;21544;-61
